createdAt,value
2018-05-21T00:02:12.325Z,13.21
2018-05-21T00:04:39.419Z,13.18
2018-05-21T00:07:05.511Z,13.14
2018-05-21T00:09:31.531Z,13.07
2018-05-21T00:11:57.541Z,13.05
2018-05-21T00:14:23.571Z,13.03
2018-05-21T00:16:49.678Z,13.03
2018-05-21T00:19:15.784Z,12.99
2018-05-21T00:21:41.845Z,12.96
2018-05-21T00:24:07.885Z,12.95
2018-05-21T00:26:33.912Z,12.93
2018-05-21T00:29:00.085Z,12.94
2018-05-21T00:31:26.113Z,12.92
2018-05-21T00:33:52.943Z,12.90
2018-05-21T00:36:18.998Z,12.93
2018-05-21T00:38:45.018Z,12.94
2018-05-21T00:41:11.051Z,12.97
2018-05-21T00:43:37.146Z,12.99
2018-05-21T00:46:03.172Z,13.03
2018-05-21T00:48:29.161Z,13.07
2018-05-21T00:50:55.224Z,13.14
2018-05-21T00:53:21.241Z,13.22
2018-05-21T00:55:47.234Z,13.22
2018-05-21T00:58:13.321Z,13.22
2018-05-21T01:00:39.357Z,13.26
2018-05-21T01:03:05.462Z,13.28
2018-05-21T01:05:31.504Z,13.30
2018-05-21T01:07:57.558Z,13.33
2018-05-21T01:10:23.600Z,13.34
2018-05-21T01:12:49.710Z,13.36
2018-05-21T01:15:15.709Z,13.41
2018-05-21T01:17:41.714Z,13.36
2018-05-21T01:20:07.821Z,13.38
2018-05-21T01:22:33.828Z,13.47
2018-05-21T01:24:59.879Z,13.44
2018-05-21T01:27:25.894Z,13.43
2018-05-21T01:29:51.951Z,13.40
2018-05-21T01:32:18.081Z,13.35
2018-05-21T01:34:44.172Z,13.45
2018-05-21T01:37:10.237Z,13.46
2018-05-21T01:39:37.074Z,13.49
2018-05-21T01:42:03.097Z,13.52
2018-05-21T01:44:29.149Z,13.49
2018-05-21T01:46:55.174Z,13.62
2018-05-21T01:49:21.269Z,13.64
2018-05-21T01:51:47.290Z,13.62
2018-05-21T01:54:13.312Z,13.62
2018-05-21T01:56:39.427Z,13.68
2018-05-21T01:59:05.487Z,13.67
2018-05-21T02:01:31.648Z,13.64
2018-05-21T02:03:57.665Z,13.62
2018-05-21T02:06:23.691Z,13.59
2018-05-21T02:08:49.785Z,13.58
2018-05-21T02:11:15.819Z,13.58
2018-05-21T02:13:41.878Z,13.59
2018-05-21T02:16:07.897Z,13.58
2018-05-21T02:18:33.909Z,13.54
2018-05-21T02:21:00.005Z,13.56
2018-05-21T02:23:26.046Z,13.57
2018-05-21T02:25:52.125Z,13.52
2018-05-21T02:28:18.154Z,13.54
2018-05-21T02:30:44.250Z,13.47
2018-05-21T02:33:10.330Z,13.45
2018-05-21T02:35:36.352Z,13.44
2018-05-21T02:38:02.444Z,13.40
2018-05-21T02:40:28.631Z,13.35
2018-05-21T02:42:54.648Z,13.33
2018-05-21T02:45:20.657Z,13.29
2018-05-21T02:47:46.689Z,13.24
2018-05-21T02:50:12.863Z,13.25
2018-05-21T02:52:38.974Z,13.25
2018-05-21T02:55:04.990Z,13.18
2018-05-21T02:57:31.033Z,13.18
2018-05-21T02:59:57.107Z,13.14
2018-05-21T03:02:23.151Z,13.11
2018-05-21T03:04:49.406Z,13.09
2018-05-21T03:07:15.405Z,13.04
2018-05-21T03:09:41.435Z,13.01
2018-05-21T03:12:07.494Z,12.93
2018-05-21T03:14:33.549Z,12.93
2018-05-21T03:16:59.673Z,12.90
2018-05-21T03:19:25.796Z,12.92
2018-05-21T03:21:51.827Z,12.90
2018-05-21T03:24:17.861Z,12.90
2018-05-21T03:26:43.929Z,12.83
2018-05-21T03:29:09.993Z,12.82
2018-05-21T03:31:36.043Z,12.76
2018-05-21T03:34:02.144Z,12.69
2018-05-21T03:36:28.214Z,12.66
2018-05-21T03:38:54.393Z,12.63
2018-05-21T03:41:20.478Z,12.61
2018-05-21T03:43:46.497Z,12.59
2018-05-21T03:46:12.708Z,12.55
2018-05-21T03:48:38.780Z,12.54
2018-05-21T03:51:04.832Z,12.54
2018-05-21T03:53:30.910Z,12.52
2018-05-21T03:55:56.966Z,12.52
2018-05-21T03:58:35.194Z,12.51
2018-05-21T04:01:13.487Z,12.49
2018-05-21T04:03:51.813Z,12.45
2018-05-21T04:06:17.935Z,12.43
2018-05-21T04:08:44.106Z,12.49
2018-05-21T04:11:10.166Z,12.50
2018-05-21T04:13:36.201Z,12.56
2018-05-21T04:16:02.252Z,12.62
2018-05-21T04:18:28.342Z,12.68
2018-05-21T04:20:54.397Z,12.70
2018-05-21T04:23:20.448Z,12.76
2018-05-21T04:25:46.595Z,12.81
2018-05-21T04:28:12.799Z,12.83
2018-05-21T04:30:38.828Z,12.84
2018-05-21T04:33:04.925Z,12.78
2018-05-21T04:35:30.982Z,12.83
2018-05-21T04:37:57.019Z,12.83
2018-05-21T04:40:23.073Z,12.82
2018-05-21T04:42:49.101Z,12.89
2018-05-21T04:45:15.156Z,12.93
2018-05-21T04:47:41.351Z,12.97
2018-05-21T04:50:07.414Z,13.02
2018-05-21T04:52:33.457Z,13.13
2018-05-21T04:54:59.493Z,13.19
2018-05-21T04:57:25.562Z,13.29
2018-05-21T04:59:51.699Z,13.32
2018-05-21T05:02:17.763Z,13.45
2018-05-21T05:04:43.754Z,13.54
2018-05-21T05:07:09.822Z,13.58
2018-05-21T05:09:35.846Z,13.59
2018-05-21T05:12:02.451Z,13.58
2018-05-21T05:14:28.528Z,13.50
2018-05-21T05:16:54.668Z,13.47
2018-05-21T05:19:20.704Z,13.49
2018-05-21T05:21:46.776Z,13.65
2018-05-21T05:24:12.836Z,13.74
2018-05-21T05:26:39.307Z,13.86
2018-05-21T05:29:05.348Z,13.98
2018-05-21T05:31:31.790Z,14.11
2018-05-21T05:33:57.809Z,14.29
2018-05-21T05:36:23.882Z,14.47
2018-05-21T05:38:49.965Z,14.49
2018-05-21T05:41:15.981Z,14.71
2018-05-21T05:43:42.009Z,14.95
2018-05-21T05:46:08.058Z,15.10
2018-05-21T05:48:34.085Z,15.30
2018-05-21T05:51:00.101Z,15.41
2018-05-21T05:53:26.237Z,15.60
2018-05-21T05:55:52.294Z,15.67
2018-05-21T05:58:18.303Z,15.64
2018-05-21T06:00:44.342Z,15.85
2018-05-21T06:03:10.470Z,16.08
2018-05-21T06:05:36.586Z,16.29
2018-05-21T06:08:03.532Z,16.43
2018-05-21T06:10:29.542Z,16.86
2018-05-21T06:12:55.633Z,16.89
2018-05-21T06:15:21.664Z,17.11
2018-05-21T06:17:47.717Z,17.37
2018-05-21T06:20:13.753Z,17.37
2018-05-21T06:22:39.809Z,17.49
2018-05-21T06:25:05.944Z,17.70
2018-05-21T06:27:31.971Z,17.93
2018-05-21T06:29:58.024Z,18.05
2018-05-21T06:32:24.037Z,18.16
2018-05-21T06:34:50.134Z,18.14
2018-05-21T06:37:16.154Z,18.31
2018-05-21T06:39:42.183Z,18.47
2018-05-21T06:42:08.271Z,18.42
2018-05-21T06:44:34.306Z,18.43
2018-05-21T06:47:00.359Z,18.45
2018-05-21T06:49:26.421Z,18.76
2018-05-21T06:51:59.725Z,18.83
2018-05-21T06:54:25.772Z,18.59
2018-05-21T06:56:51.822Z,18.32
2018-05-21T06:59:17.872Z,18.12
2018-05-21T07:01:43.943Z,18.25
2018-05-21T07:04:09.964Z,18.46
2018-05-21T07:06:36.016Z,18.72
2018-05-21T07:09:02.160Z,19.24
2018-05-21T07:11:28.177Z,19.57
2018-05-21T07:13:54.189Z,19.77
2018-05-21T07:16:20.590Z,19.63
2018-05-21T07:18:46.642Z,19.89
2018-05-21T07:21:12.698Z,20.08
2018-05-21T07:23:38.724Z,20.23
2018-05-21T07:26:04.795Z,20.05
2018-05-21T07:28:31.417Z,20.04
2018-05-21T07:30:57.415Z,19.86
2018-05-21T07:33:23.491Z,20.41
2018-05-21T07:35:49.566Z,20.30
2018-05-21T07:38:15.587Z,20.15
2018-05-21T07:40:41.627Z,19.71
2018-05-21T07:43:07.613Z,19.59
2018-05-21T07:45:33.649Z,19.49
2018-05-21T07:47:59.759Z,19.57
2018-05-21T07:50:25.783Z,19.89
2018-05-21T07:52:51.802Z,20.25
2018-05-21T07:55:17.846Z,20.22
2018-05-21T07:57:43.903Z,20.24
2018-05-21T08:00:10.015Z,20.76
2018-05-21T08:02:36.056Z,21.34
2018-05-21T08:05:02.147Z,21.12
2018-05-21T08:07:28.207Z,20.74
2018-05-21T08:09:54.259Z,20.48
2018-05-21T08:12:20.492Z,20.29
2018-05-21T08:14:46.779Z,20.19
2018-05-21T08:17:12.977Z,20.08
2018-05-21T08:19:39.037Z,19.98
2018-05-21T08:22:05.055Z,20.24
2018-05-21T08:24:31.095Z,20.49
2018-05-21T08:26:57.125Z,20.79
2018-05-21T08:29:23.183Z,21.29
2018-05-21T08:31:49.249Z,21.63
2018-05-21T08:34:15.307Z,21.61
2018-05-21T08:36:41.343Z,23.38
2018-05-21T08:39:07.445Z,22.87
2018-05-21T08:41:33.521Z,22.43
2018-05-21T08:43:59.533Z,22.03
2018-05-21T08:46:25.571Z,22.10
2018-05-21T08:48:51.669Z,22.01
2018-05-21T08:51:17.703Z,21.99
2018-05-21T08:53:43.728Z,22.12
2018-05-21T08:56:09.749Z,22.11
2018-05-21T08:58:35.867Z,22.20
2018-05-21T09:01:01.919Z,22.13
2018-05-21T09:03:27.974Z,22.34
2018-05-21T09:05:54.083Z,22.75
2018-05-21T09:08:20.124Z,22.85
2018-05-21T09:10:46.227Z,23.13
2018-05-21T09:13:12.582Z,23.24
2018-05-21T09:15:38.693Z,23.23
2018-05-21T09:18:04.745Z,23.27
2018-05-21T09:20:30.780Z,23.77
2018-05-21T09:22:57.492Z,23.96
2018-05-21T09:25:23.569Z,23.97
2018-05-21T09:27:49.581Z,24.09
2018-05-21T09:30:15.648Z,24.14
2018-05-21T09:32:41.668Z,24.32
2018-05-21T09:35:07.690Z,24.13
2018-05-21T09:37:33.780Z,24.29
2018-05-21T09:39:59.911Z,24.04
2018-05-21T09:42:26.079Z,23.98
2018-05-21T09:44:52.189Z,23.96
2018-05-21T09:47:18.271Z,24.07
2018-05-21T09:49:44.345Z,24.38
2018-05-21T09:52:10.387Z,24.61
2018-05-21T09:54:36.565Z,24.56
2018-05-21T09:57:02.782Z,24.98
2018-05-21T09:59:28.844Z,25.23
2018-05-21T10:01:54.877Z,26.16
2018-05-21T10:04:21.470Z,28.88
2018-05-21T10:06:47.549Z,30.85
2018-05-21T10:09:13.609Z,29.66
2018-05-21T10:11:39.614Z,29.92
2018-05-21T10:16:38.550Z,33.55
2018-05-21T10:19:04.709Z,34.55
2018-05-21T10:21:30.895Z,33.12
2018-05-21T10:23:56.948Z,30.61
2018-05-21T10:26:23.005Z,29.71
2018-05-21T10:28:49.033Z,29.81
2018-05-21T10:31:15.178Z,29.98
2018-05-21T10:33:41.206Z,29.61
2018-05-21T10:36:07.209Z,28.90
2018-05-21T10:38:33.246Z,29.37
2018-05-21T10:40:59.303Z,31.37
2018-05-21T10:43:25.379Z,34.24
2018-05-21T10:45:51.390Z,35.85
2018-05-21T10:48:17.381Z,37.29
2018-05-21T10:50:43.438Z,37.58
2018-05-21T10:53:09.471Z,38.30
2018-05-21T10:55:35.516Z,38.33
2018-05-21T10:58:01.562Z,38.97
2018-05-21T11:00:27.596Z,38.17
2018-05-21T11:02:53.623Z,37.42
2018-05-21T11:05:19.758Z,37.26
2018-05-21T11:07:46.473Z,37.88
2018-05-21T11:10:12.666Z,38.24
2018-05-21T11:12:38.715Z,39.36
2018-05-21T11:15:04.777Z,38.63
2018-05-21T11:17:30.884Z,38.51
2018-05-21T11:19:56.963Z,38.76
2018-05-21T11:22:23.018Z,38.02
2018-05-21T11:24:49.102Z,38.04
2018-05-21T11:27:15.232Z,38.27
2018-05-21T11:29:41.414Z,38.22
2018-05-21T11:32:07.486Z,38.13
2018-05-21T11:34:33.529Z,38.65
2018-05-21T11:36:59.697Z,38.61
2018-05-21T11:39:25.736Z,39.05
2018-05-21T11:41:51.838Z,39.95
2018-05-21T11:44:17.862Z,39.97
2018-05-21T11:46:44.845Z,40.33
2018-05-21T11:49:10.917Z,39.41
2018-05-21T11:51:37.215Z,39.80
2018-05-21T11:54:03.350Z,39.65
2018-05-21T11:56:29.418Z,37.65
2018-05-21T11:58:55.492Z,36.92
2018-05-21T12:01:21.545Z,36.91
2018-05-21T12:03:47.615Z,36.61
2018-05-21T12:06:13.682Z,36.33
2018-05-21T12:08:39.775Z,36.54
2018-05-21T12:11:05.916Z,36.55
2018-05-21T12:13:32.600Z,36.39
2018-05-21T12:15:58.680Z,37.84
2018-05-21T12:18:24.709Z,38.56
2018-05-21T12:20:50.816Z,38.88
2018-05-21T12:23:17.054Z,38.99
2018-05-21T12:25:43.637Z,38.72
2018-05-21T12:28:09.701Z,39.70
2018-05-21T12:30:35.723Z,39.01
2018-05-21T12:33:01.777Z,38.99
2018-05-21T12:35:27.905Z,39.37
2018-05-21T12:37:54.023Z,38.47
2018-05-21T12:40:20.070Z,38.54
2018-05-21T12:42:46.205Z,38.57
2018-05-21T12:45:12.394Z,38.37
2018-05-21T12:47:38.588Z,38.27
2018-05-21T12:50:04.671Z,38.51
2018-05-21T12:52:30.951Z,38.24
2018-05-21T12:54:57.006Z,37.89
2018-05-21T12:57:23.193Z,38.00
2018-05-21T12:59:49.280Z,37.63
2018-05-21T13:02:15.377Z,37.91
2018-05-21T13:04:41.477Z,37.23
2018-05-21T13:07:07.573Z,37.27
2018-05-21T13:09:33.641Z,37.58
2018-05-21T13:11:59.817Z,37.22
2018-05-21T13:14:25.879Z,37.12
2018-05-21T13:16:51.975Z,36.25
2018-05-21T13:19:18.038Z,35.84
2018-05-21T13:21:44.124Z,35.70
2018-05-21T13:24:10.398Z,35.65
2018-05-21T13:26:36.450Z,35.38
2018-05-21T13:29:02.511Z,34.80
2018-05-21T13:31:28.544Z,34.84
2018-05-21T13:33:54.762Z,34.06
2018-05-21T13:36:20.888Z,33.00
2018-05-21T13:38:46.999Z,31.92
2018-05-21T13:41:13.081Z,32.02
2018-05-21T13:43:39.163Z,32.23
2018-05-21T13:46:05.301Z,31.81
2018-05-21T13:48:31.314Z,31.67
2018-05-21T13:50:57.376Z,32.12
2018-05-21T13:53:23.420Z,31.57
2018-05-21T13:55:49.528Z,31.29
2018-05-21T13:58:15.604Z,31.62
2018-05-21T14:00:41.738Z,31.61
2018-05-21T14:03:07.816Z,31.73
2018-05-21T14:05:33.942Z,31.80
2018-05-21T14:08:00.018Z,31.20
2018-05-21T14:10:26.032Z,30.42
2018-05-21T14:12:52.114Z,30.52
2018-05-21T14:15:18.155Z,30.81
2018-05-21T14:17:44.244Z,30.74
2018-05-21T14:20:10.357Z,30.41
2018-05-21T14:22:36.513Z,30.57
2018-05-21T14:25:02.771Z,30.14
2018-05-21T14:27:28.837Z,30.35
2018-05-21T14:29:54.917Z,30.51
2018-05-21T14:32:20.986Z,30.22
2018-05-21T14:34:47.255Z,29.97
2018-05-21T14:37:13.338Z,30.07
2018-05-21T14:39:39.429Z,30.17
2018-05-21T14:42:05.523Z,30.05
2018-05-21T14:44:31.621Z,29.39
2018-05-21T14:46:57.649Z,29.66
2018-05-21T14:49:23.721Z,29.59
2018-05-21T14:51:49.769Z,29.07
2018-05-21T14:54:15.850Z,28.94
2018-05-21T14:56:41.902Z,28.66
2018-05-21T14:59:07.911Z,28.19
2018-05-21T15:01:34.025Z,27.90
2018-05-21T15:04:00.090Z,27.84
2018-05-21T15:06:26.147Z,27.89
2018-05-21T15:08:52.209Z,27.99
2018-05-21T15:11:18.300Z,28.07
2018-05-21T15:13:45.245Z,28.05
2018-05-21T15:16:11.357Z,28.27
2018-05-21T15:18:37.358Z,28.49
2018-05-21T15:21:03.418Z,28.56
2018-05-21T15:23:29.441Z,28.41
2018-05-21T15:25:55.555Z,28.39
2018-05-21T15:28:21.631Z,28.44
2018-05-21T15:30:47.667Z,28.43
2018-05-21T15:33:13.739Z,27.94
2018-05-21T15:35:39.784Z,27.40
2018-05-21T15:38:05.849Z,27.29
2018-05-21T15:40:31.902Z,27.18
2018-05-21T15:42:58.121Z,27.29
2018-05-21T15:45:24.143Z,27.25
2018-05-21T15:47:50.212Z,27.23
2018-05-21T15:50:16.266Z,27.24
2018-05-21T15:52:42.442Z,27.35
2018-05-21T15:55:08.663Z,27.50
2018-05-21T15:57:34.760Z,27.48
2018-05-21T16:00:00.704Z,27.29
2018-05-21T16:02:26.994Z,27.33
2018-05-21T16:04:53.217Z,27.10
2018-05-21T16:07:19.309Z,26.98
2018-05-21T16:09:45.325Z,26.93
2018-05-21T16:12:11.380Z,27.06
2018-05-21T16:14:37.458Z,27.06
2018-05-21T16:17:03.484Z,26.78
2018-05-21T16:19:29.529Z,26.64
2018-05-21T16:21:55.570Z,26.66
2018-05-21T16:24:21.743Z,26.53
2018-05-21T16:26:47.677Z,26.54
2018-05-21T16:29:13.770Z,26.28
2018-05-21T16:31:39.850Z,26.21
2018-05-21T16:34:05.848Z,26.21
2018-05-21T16:36:31.899Z,26.09
2018-05-21T16:38:58.009Z,26.01
2018-05-21T16:41:24.049Z,26.09
2018-05-21T16:43:50.149Z,25.89
2018-05-21T16:46:16.273Z,25.84
2018-05-21T16:48:42.372Z,25.84
2018-05-21T16:51:08.582Z,25.92
2018-05-21T16:53:34.593Z,26.02
2018-05-21T16:56:00.604Z,25.92
2018-05-21T16:58:26.795Z,25.82
2018-05-21T17:00:52.855Z,25.67
2018-05-21T17:03:18.884Z,25.53
2018-05-21T17:05:44.880Z,25.50
2018-05-21T17:08:11.031Z,25.41
2018-05-21T17:10:37.081Z,25.27
2018-05-21T17:13:03.155Z,25.01
2018-05-21T17:15:29.166Z,24.91
2018-05-21T17:17:55.318Z,24.88
2018-05-21T17:20:21.460Z,24.66
2018-05-21T17:22:47.431Z,24.63
2018-05-21T17:25:13.477Z,24.34
2018-05-21T17:27:39.526Z,24.40
2018-05-21T17:30:05.597Z,24.44
2018-05-21T17:32:31.695Z,24.47
2018-05-21T17:34:57.884Z,24.40
2018-05-21T17:37:23.926Z,24.38
2018-05-21T17:39:49.971Z,24.28
2018-05-21T17:42:16.165Z,24.25
2018-05-21T17:44:42.312Z,24.15
2018-05-21T17:47:08.559Z,24.04
2018-05-21T17:49:34.736Z,24.13
2018-05-21T17:52:00.896Z,24.17
2018-05-21T17:54:26.904Z,24.07
2018-05-21T17:56:53.074Z,24.16
2018-05-21T17:59:19.219Z,24.22
2018-05-21T18:01:45.316Z,24.09
2018-05-21T18:04:11.647Z,23.99
2018-05-21T18:06:37.657Z,23.90
2018-05-21T18:09:03.785Z,23.71
2018-05-21T18:11:29.833Z,23.63
2018-05-21T18:13:55.932Z,23.64
2018-05-21T18:16:22.028Z,23.59
2018-05-21T18:18:48.050Z,23.44
2018-05-21T18:21:14.096Z,23.33
2018-05-21T18:23:40.153Z,23.24
2018-05-21T18:26:06.250Z,23.24
2018-05-21T18:28:32.302Z,23.12
2018-05-21T18:30:58.359Z,23.13
2018-05-21T18:33:24.504Z,23.17
2018-05-21T18:35:50.739Z,23.24
2018-05-21T18:38:16.833Z,23.23
2018-05-21T18:40:42.902Z,23.20
2018-05-21T18:43:08.972Z,23.24
2018-05-21T18:45:35.072Z,23.23
2018-05-21T18:48:01.205Z,23.20
2018-05-21T18:50:27.221Z,23.18
2018-05-21T18:52:53.247Z,23.16
2018-05-21T18:55:19.310Z,23.18
2018-05-21T18:57:45.346Z,23.09
2018-05-21T19:00:11.510Z,23.06
2018-05-21T19:02:37.459Z,23.04
2018-05-21T19:05:03.518Z,23.02
2018-05-21T19:07:29.536Z,22.98
2018-05-21T19:09:55.565Z,22.93
2018-05-21T19:12:21.649Z,22.87
2018-05-21T19:14:47.701Z,22.75
2018-05-21T19:17:13.750Z,22.71
2018-05-21T19:19:39.774Z,22.68
2018-05-21T19:22:05.798Z,22.68
2018-05-21T19:24:31.812Z,22.57
2018-05-21T19:26:57.855Z,22.50
2018-05-21T19:29:23.919Z,22.43
2018-05-21T19:31:50.027Z,22.39
2018-05-21T19:34:16.103Z,22.37
2018-05-21T19:36:42.175Z,22.32
2018-05-21T19:39:08.281Z,22.33
2018-05-21T19:41:34.327Z,22.24
2018-05-21T19:44:00.376Z,22.20
2018-05-21T19:46:26.465Z,22.05
2018-05-21T19:48:52.736Z,21.90
2018-05-21T19:51:18.840Z,21.74
2018-05-21T19:53:44.957Z,21.66
2018-05-21T19:56:11.035Z,21.55
2018-05-21T19:58:37.131Z,21.52
2018-05-21T20:01:03.548Z,21.42
2018-05-21T20:03:29.591Z,21.37
2018-05-21T20:05:55.704Z,21.40
2018-05-21T20:08:21.753Z,21.45
2018-05-21T20:10:47.835Z,21.35
2018-05-21T20:13:13.953Z,21.34
2018-05-21T20:15:40.046Z,21.26
2018-05-21T20:18:06.097Z,21.24
2018-05-21T20:20:38.270Z,21.17
2018-05-21T20:23:04.299Z,21.13
2018-05-21T20:25:30.318Z,21.12
2018-05-21T20:27:56.382Z,21.14
2018-05-21T20:30:22.443Z,21.06
2018-05-21T20:32:48.548Z,21.08
2018-05-21T20:35:14.602Z,21.08
2018-05-21T20:37:40.716Z,21.06
2018-05-21T20:40:06.917Z,21.08
2018-05-21T20:42:33.614Z,21.05
2018-05-21T20:44:59.630Z,21.04
2018-05-21T20:47:25.670Z,21.03
2018-05-21T20:49:51.712Z,21.00
2018-05-21T20:52:17.760Z,20.99
2018-05-21T20:54:43.810Z,20.94
2018-05-21T20:57:09.851Z,20.95
2018-05-21T20:59:35.874Z,20.88
2018-05-21T21:02:01.898Z,20.84
2018-05-21T21:04:27.904Z,20.77
2018-05-21T21:06:53.969Z,20.77
2018-05-21T21:09:20.275Z,20.74
2018-05-21T21:11:46.315Z,20.68
2018-05-21T21:14:12.586Z,20.67
2018-05-21T21:16:38.615Z,20.63
2018-05-21T21:19:05.198Z,20.62
2018-05-21T21:21:31.243Z,20.59
2018-05-21T21:23:58.222Z,20.58
2018-05-21T21:26:24.430Z,20.60
2018-05-21T21:28:50.453Z,20.55
2018-05-21T21:31:16.502Z,20.47
2018-05-21T21:33:42.691Z,20.44
2018-05-21T21:36:09.320Z,20.42
2018-05-21T21:38:35.327Z,20.39
2018-05-21T21:41:01.347Z,20.35
2018-05-21T21:43:27.412Z,20.32
2018-05-21T21:45:53.438Z,20.27
2018-05-21T21:48:19.449Z,20.22
2018-05-21T21:50:45.466Z,20.14
2018-05-21T21:53:11.516Z,20.07
2018-05-21T21:55:37.546Z,20.04
2018-05-21T21:58:03.676Z,20.07
2018-05-21T22:00:29.745Z,20.02
2018-05-21T22:02:56.005Z,20.01
2018-05-21T22:05:22.123Z,20.05
2018-05-21T22:07:48.270Z,20.04
2018-05-21T22:10:14.295Z,19.95
2018-05-21T22:12:40.326Z,19.94
2018-05-21T22:15:06.494Z,19.85
2018-05-21T22:17:32.670Z,19.82
2018-05-21T22:19:58.721Z,19.80
2018-05-21T22:22:24.880Z,19.76
2018-05-21T22:24:50.926Z,19.82
2018-05-21T22:27:17.079Z,19.81
2018-05-21T22:29:43.241Z,19.77
2018-05-21T22:32:09.293Z,19.73
2018-05-21T22:34:35.362Z,19.70
2018-05-21T22:37:01.427Z,19.69
2018-05-21T22:39:27.865Z,19.65
2018-05-21T22:41:53.892Z,19.64
2018-05-21T22:44:20.119Z,19.61
2018-05-21T22:46:46.287Z,19.52
2018-05-21T22:49:12.342Z,19.48
2018-05-21T22:51:38.365Z,19.46
2018-05-21T22:54:04.401Z,19.41
2018-05-21T22:56:31.411Z,19.43
2018-05-21T22:58:57.809Z,19.42
2018-05-21T23:01:23.886Z,19.39
2018-05-21T23:03:49.926Z,19.36
2018-05-21T23:06:15.978Z,19.34
2018-05-21T23:08:42.001Z,19.33
2018-05-21T23:11:08.039Z,19.35
2018-05-21T23:13:34.693Z,19.28
2018-05-21T23:16:00.834Z,19.25
2018-05-21T23:18:26.888Z,19.18
2018-05-21T23:20:52.932Z,19.17
2018-05-21T23:23:19.021Z,19.16
2018-05-21T23:25:45.843Z,19.17
2018-05-21T23:28:11.859Z,19.15
2018-05-21T23:30:37.882Z,19.15
2018-05-21T23:33:03.964Z,19.10
2018-05-21T23:35:29.976Z,19.14
2018-05-21T23:37:56.024Z,19.12
2018-05-21T23:40:22.077Z,19.07
2018-05-21T23:42:48.135Z,18.98
2018-05-21T23:45:14.444Z,18.97
2018-05-21T23:47:40.486Z,18.97
2018-05-21T23:50:06.493Z,18.99
2018-05-21T23:52:32.527Z,18.97
2018-05-21T23:54:58.840Z,19.00
2018-05-21T23:57:24.929Z,18.99
2018-05-21T23:59:51.761Z,18.98
